UTA555 UOOO-UNOO
Flight info
| Callsign | UTA555 |
|---|---|
| Flight time | 2h 20m |
| Altitude | 34000 |
| Route | SUBO2B SUBOT R717 TARSA/N0453F350 T660 NWK/N0453F360 T660 ML N990 POGIR POGI6B |
| Aircraft | B738/M-SDE1FGHIJ1RWXYZ/LB1 |
Departure
| Time | 2026-04-24 11:41 |
|---|---|
| Airport | Alykel International Airport (UOOO) |
Arrival
| Time | 2026-04-24 14:01 |
|---|---|
| Airport | Omsk Central Airport (UNOO) |
| Time | Latitude | Longitude | Altitude | Speed | Heading |
|---|---|---|---|---|---|
| 2026-04-24 11:04 | 69.32406 | 87.34331 | 605 ft | 0 kts | 302° |
| 2026-04-24 11:06 | 69.32406 | 87.34332 | 605 ft | 0 kts | 302° |
| 2026-04-24 11:11 | 69.32406 | 87.34333 | 605 ft | 0 kts | 302° |
| 2026-04-24 11:17 | 69.32406 | 87.34334 | 605 ft | 0 kts | 302° |
| 2026-04-24 11:22 | 69.32406 | 87.34335 | 605 ft | 0 kts | 302° |
| 2026-04-24 11:33 | 69.32394 | 87.34388 | 622 ft | 4 kts | 302° |
| 2026-04-24 11:33 | 69.32381 | 87.34450 | 614 ft | 3 kts | 296° |
| 2026-04-24 11:33 | 69.32376 | 87.34486 | 610 ft | 2 kts | 266° |
| 2026-04-24 11:34 | 69.32381 | 87.34514 | 617 ft | 2 kts | 216° |
| 2026-04-24 11:34 | 69.32389 | 87.34529 | 622 ft | 0 kts | 212° |
| 2026-04-24 11:37 | 69.32387 | 87.34526 | 622 ft | 2 kts | 212° |
| 2026-04-24 11:37 | 69.32361 | 87.34482 | 615 ft | 7 kts | 211° |
| 2026-04-24 11:37 | 69.32310 | 87.34393 | 616 ft | 9 kts | 212° |
| 2026-04-24 11:37 | 69.32255 | 87.34295 | 614 ft | 9 kts | 213° |
| 2026-04-24 11:38 | 69.32200 | 87.34192 | 617 ft | 10 kts | 212° |
| 2026-04-24 11:38 | 69.32142 | 87.34089 | 609 ft | 10 kts | 212° |
| 2026-04-24 11:38 | 69.32079 | 87.34053 | 614 ft | 10 kts | 154° |
| 2026-04-24 11:38 | 69.32038 | 87.34196 | 605 ft | 9 kts | 123° |
| 2026-04-24 11:39 | 69.32005 | 87.34347 | 611 ft | 9 kts | 122° |
| 2026-04-24 11:39 | 69.31972 | 87.34498 | 610 ft | 9 kts | 122° |
| 2026-04-24 11:39 | 69.31934 | 87.34626 | 606 ft | 9 kts | 155° |
| 2026-04-24 11:39 | 69.31888 | 87.34592 | 603 ft | 2 kts | 214° |
| 2026-04-24 11:40 | 69.31887 | 87.34590 | 603 ft | 0 kts | 214° |
| 2026-04-24 11:40 | 69.31768 | 87.34370 | 602 ft | 58 kts | 212° |
| 2026-04-24 11:40 | 69.31190 | 87.33342 | 583 ft | 135 kts | 212° |
| 2026-04-24 11:40 | 69.30220 | 87.31609 | 714 ft | 185 kts | 207° |
| 2026-04-24 11:41 | 69.29172 | 87.29634 | 1883 ft | 173 kts | 206° |
| 2026-04-24 11:41 | 69.28129 | 87.27760 | 2701 ft | 184 kts | 207° |
| 2026-04-24 11:41 | 69.27021 | 87.25782 | 3025 ft | 200 kts | 207° |
| 2026-04-24 11:41 | 69.25784 | 87.23567 | 3328 ft | 217 kts | 208° |
| 2026-04-24 11:42 | 69.24451 | 87.21209 | 3589 ft | 240 kts | 208° |
| 2026-04-24 11:42 | 69.23045 | 87.18138 | 3691 ft | 274 kts | 222° |
| 2026-04-24 11:42 | 69.21731 | 87.14014 | 4190 ft | 290 kts | 225° |
| 2026-04-24 11:42 | 69.20367 | 87.09697 | 4924 ft | 296 kts | 225° |
| 2026-04-24 11:43 | 69.18969 | 87.05364 | 5693 ft | 302 kts | 224° |
| 2026-04-24 11:43 | 69.17551 | 87.01050 | 6440 ft | 306 kts | 224° |
| 2026-04-24 11:43 | 69.16088 | 86.96642 | 7188 ft | 310 kts | 224° |
| 2026-04-24 11:43 | 69.14592 | 86.92160 | 7874 ft | 315 kts | 224° |
| 2026-04-24 11:44 | 69.13591 | 86.89169 | 8343 ft | 318 kts | 224° |
| 2026-04-24 11:44 | 69.11556 | 86.83105 | 9307 ft | 324 kts | 224° |
| 2026-04-24 11:44 | 69.09999 | 86.78478 | 9983 ft | 327 kts | 224° |
| 2026-04-24 11:44 | 69.08957 | 86.75389 | 10408 ft | 330 kts | 224° |
| 2026-04-24 11:45 | 69.07368 | 86.70688 | 11067 ft | 333 kts | 224° |
| 2026-04-24 11:45 | 69.05764 | 86.65949 | 11722 ft | 336 kts | 224° |
| 2026-04-24 11:45 | 69.04145 | 86.61173 | 12368 ft | 340 kts | 225° |
| 2026-04-24 11:45 | 69.02503 | 86.56346 | 12998 ft | 344 kts | 224° |
| 2026-04-24 11:46 | 69.00862 | 86.51540 | 13587 ft | 348 kts | 224° |
| 2026-04-24 11:46 | 68.99168 | 86.46656 | 14160 ft | 351 kts | 223° |
| 2026-04-24 11:46 | 68.97408 | 86.41898 | 14724 ft | 354 kts | 221° |
| 2026-04-24 11:46 | 68.95614 | 86.37183 | 15293 ft | 356 kts | 221° |
| 2026-04-24 11:47 | 68.93790 | 86.32428 | 15853 ft | 360 kts | 221° |
| 2026-04-24 11:47 | 68.91955 | 86.27649 | 16399 ft | 363 kts | 221° |
| 2026-04-24 11:47 | 68.90105 | 86.22825 | 16934 ft | 367 kts | 221° |
| 2026-04-24 11:47 | 68.88232 | 86.17937 | 17496 ft | 370 kts | 221° |
| 2026-04-24 11:48 | 68.86373 | 86.13085 | 18024 ft | 373 kts | 221° |
| 2026-04-24 11:48 | 68.84466 | 86.08112 | 18563 ft | 377 kts | 221° |
| 2026-04-24 11:48 | 68.82539 | 86.03095 | 19127 ft | 380 kts | 220° |
| 2026-04-24 11:48 | 68.80631 | 85.98137 | 19668 ft | 382 kts | 220° |
| 2026-04-24 11:49 | 68.78682 | 85.93081 | 20181 ft | 386 kts | 220° |
| 2026-04-24 11:49 | 68.76709 | 85.87978 | 20703 ft | 389 kts | 220° |
| 2026-04-24 11:49 | 68.74719 | 85.82843 | 21222 ft | 392 kts | 220° |
| 2026-04-24 11:49 | 68.72737 | 85.77741 | 21721 ft | 395 kts | 220° |
| 2026-04-24 11:50 | 68.70715 | 85.72550 | 22227 ft | 398 kts | 220° |
| 2026-04-24 11:50 | 68.68670 | 85.67311 | 22712 ft | 402 kts | 219° |
| 2026-04-24 11:50 | 68.66616 | 85.62065 | 23193 ft | 405 kts | 219° |
| 2026-04-24 11:50 | 68.64546 | 85.56792 | 23598 ft | 407 kts | 219° |
| 2026-04-24 11:51 | 68.62487 | 85.51560 | 24007 ft | 410 kts | 220° |
| 2026-04-24 11:51 | 68.60385 | 85.46232 | 24418 ft | 412 kts | 220° |
| 2026-04-24 11:51 | 68.58267 | 85.40879 | 24821 ft | 414 kts | 220° |
| 2026-04-24 11:51 | 68.56140 | 85.35517 | 25171 ft | 416 kts | 220° |
| 2026-04-24 11:52 | 68.54021 | 85.30190 | 25529 ft | 419 kts | 220° |
| 2026-04-24 11:52 | 68.51860 | 85.24772 | 25895 ft | 421 kts | 220° |
| 2026-04-24 11:52 | 68.49692 | 85.19351 | 26236 ft | 423 kts | 220° |
| 2026-04-24 11:52 | 68.47509 | 85.13908 | 26588 ft | 426 kts | 220° |
| 2026-04-24 11:53 | 68.45311 | 85.08443 | 26921 ft | 428 kts | 220° |
| 2026-04-24 11:53 | 68.43123 | 85.03017 | 27243 ft | 430 kts | 220° |
| 2026-04-24 11:53 | 68.40900 | 84.97520 | 27563 ft | 433 kts | 220° |
| 2026-04-24 11:53 | 68.38668 | 84.92016 | 27879 ft | 435 kts | 220° |
| 2026-04-24 11:54 | 68.36414 | 84.86473 | 28186 ft | 437 kts | 220° |
| 2026-04-24 11:54 | 68.34151 | 84.80923 | 28474 ft | 439 kts | 220° |
| 2026-04-24 11:54 | 68.31901 | 84.75420 | 28789 ft | 441 kts | 221° |
| 2026-04-24 11:54 | 68.29621 | 84.69859 | 29206 ft | 440 kts | 221° |
| 2026-04-24 11:55 | 68.27346 | 84.64326 | 29689 ft | 438 kts | 221° |
| 2026-04-24 11:55 | 68.25070 | 84.58806 | 30038 ft | 437 kts | 221° |
| 2026-04-24 11:55 | 68.22825 | 84.53377 | 30291 ft | 439 kts | 221° |
| 2026-04-24 11:55 | 68.20546 | 84.47881 | 30551 ft | 439 kts | 221° |
| 2026-04-24 11:56 | 68.18267 | 84.42399 | 30875 ft | 439 kts | 221° |
| 2026-04-24 11:56 | 68.15976 | 84.36908 | 31195 ft | 438 kts | 221° |
| 2026-04-24 11:56 | 68.13727 | 84.31529 | 31463 ft | 439 kts | 221° |
| 2026-04-24 11:56 | 68.11445 | 84.26085 | 31740 ft | 439 kts | 221° |
| 2026-04-24 11:57 | 68.09153 | 84.20634 | 32044 ft | 438 kts | 221° |
| 2026-04-24 11:57 | 68.06859 | 84.15194 | 32316 ft | 438 kts | 221° |
| 2026-04-24 11:57 | 68.04602 | 84.09855 | 32567 ft | 439 kts | 221° |
| 2026-04-24 11:57 | 68.02305 | 84.04436 | 32821 ft | 440 kts | 222° |
| 2026-04-24 11:58 | 68.00001 | 83.99018 | 33095 ft | 439 kts | 222° |
| 2026-04-24 11:58 | 67.97703 | 83.93627 | 33375 ft | 439 kts | 222° |
| 2026-04-24 11:58 | 67.95403 | 83.88248 | 33618 ft | 440 kts | 222° |
| 2026-04-24 11:58 | 67.93125 | 83.82931 | 33612 ft | 443 kts | 222° |
| 2026-04-24 11:59 | 67.88471 | 83.72119 | 33619 ft | 444 kts | 222° |
| 2026-04-24 11:59 | 67.83841 | 83.61424 | 33625 ft | 438 kts | 222° |
| 2026-04-24 12:00 | 67.79231 | 83.50829 | 33641 ft | 437 kts | 222° |
| 2026-04-24 12:00 | 67.74656 | 83.40373 | 33632 ft | 437 kts | 221° |
| 2026-04-24 12:01 | 67.70048 | 83.29897 | 33631 ft | 436 kts | 221° |
| 2026-04-24 12:01 | 67.65469 | 83.19541 | 33635 ft | 436 kts | 221° |
| 2026-04-24 12:02 | 67.60853 | 83.09159 | 33634 ft | 437 kts | 221° |
| 2026-04-24 12:02 | 67.56220 | 82.98794 | 33639 ft | 438 kts | 221° |
| 2026-04-24 12:03 | 67.51573 | 82.88452 | 33641 ft | 438 kts | 221° |
| 2026-04-24 12:03 | 67.46942 | 82.78202 | 33640 ft | 439 kts | 221° |
| 2026-04-24 12:04 | 67.42261 | 82.67895 | 33634 ft | 440 kts | 221° |
| 2026-04-24 12:04 | 67.37571 | 82.57622 | 33647 ft | 440 kts | 221° |
| 2026-04-24 12:05 | 67.32901 | 82.47447 | 33651 ft | 441 kts | 221° |
| 2026-04-24 12:05 | 67.28190 | 82.37238 | 33651 ft | 441 kts | 221° |
| 2026-04-24 12:06 | 67.23465 | 82.27051 | 33648 ft | 441 kts | 221° |
| 2026-04-24 12:06 | 67.18768 | 82.16977 | 33646 ft | 441 kts | 221° |
| 2026-04-24 12:07 | 67.14032 | 82.06866 | 33646 ft | 441 kts | 221° |
| 2026-04-24 12:07 | 67.09329 | 81.96836 | 33651 ft | 440 kts | 221° |
| 2026-04-24 12:08 | 67.04632 | 81.86766 | 33650 ft | 439 kts | 221° |
| 2026-04-24 12:08 | 66.99935 | 81.76734 | 33656 ft | 439 kts | 221° |
| 2026-04-24 12:09 | 66.95261 | 81.66810 | 33658 ft | 438 kts | 221° |
| 2026-04-24 12:09 | 66.90581 | 81.56930 | 33658 ft | 438 kts | 221° |
| 2026-04-24 12:10 | 66.85876 | 81.47050 | 33662 ft | 437 kts | 221° |
| 2026-04-24 12:11 | 66.78819 | 81.32327 | 33671 ft | 437 kts | 221° |
| 2026-04-24 12:11 | 66.74130 | 81.22608 | 33670 ft | 437 kts | 221° |
| 2026-04-24 12:12 | 66.69409 | 81.12871 | 33678 ft | 437 kts | 221° |
| 2026-04-24 12:12 | 66.64674 | 81.03153 | 33675 ft | 437 kts | 221° |
| 2026-04-24 12:13 | 66.59958 | 80.93526 | 33677 ft | 438 kts | 220° |
| 2026-04-24 12:13 | 66.55215 | 80.83890 | 33683 ft | 438 kts | 220° |
| 2026-04-24 12:14 | 66.50466 | 80.74293 | 33679 ft | 438 kts | 220° |
| 2026-04-24 12:14 | 66.45731 | 80.64772 | 33685 ft | 438 kts | 220° |
| 2026-04-24 12:15 | 66.40985 | 80.55276 | 33687 ft | 439 kts | 220° |
| 2026-04-24 12:15 | 66.36208 | 80.45766 | 33691 ft | 439 kts | 220° |
| 2026-04-24 12:16 | 66.31443 | 80.36327 | 33689 ft | 439 kts | 220° |
| 2026-04-24 12:16 | 66.26643 | 80.26866 | 33697 ft | 439 kts | 220° |
| 2026-04-24 12:17 | 66.21839 | 80.17444 | 33694 ft | 439 kts | 220° |
| 2026-04-24 12:17 | 66.17064 | 80.08127 | 33698 ft | 440 kts | 220° |
| 2026-04-24 12:18 | 66.12240 | 79.98761 | 33700 ft | 440 kts | 220° |
| 2026-04-24 12:18 | 66.07423 | 79.89452 | 33702 ft | 440 kts | 220° |
| 2026-04-24 12:19 | 66.02596 | 79.80173 | 33698 ft | 440 kts | 220° |
| 2026-04-24 12:19 | 65.97788 | 79.70974 | 33703 ft | 440 kts | 220° |
| 2026-04-24 12:20 | 65.92940 | 79.61745 | 33713 ft | 440 kts | 220° |
| 2026-04-24 12:20 | 65.88118 | 79.52609 | 33723 ft | 442 kts | 219° |
| 2026-04-24 12:20 | 65.85672 | 79.47991 | 33824 ft | 445 kts | 219° |
| 2026-04-24 12:21 | 65.83222 | 79.43378 | 34047 ft | 444 kts | 219° |
| 2026-04-24 12:21 | 65.80779 | 79.38791 | 34334 ft | 442 kts | 219° |
| 2026-04-24 12:21 | 65.78340 | 79.34223 | 34555 ft | 442 kts | 219° |
| 2026-04-24 12:21 | 65.75895 | 79.29654 | 34688 ft | 442 kts | 219° |
| 2026-04-24 12:22 | 65.73439 | 79.25072 | 34702 ft | 445 kts | 219° |
| 2026-04-24 12:22 | 65.68549 | 79.15989 | 34708 ft | 444 kts | 219° |
| 2026-04-24 12:23 | 65.63648 | 79.06931 | 34709 ft | 441 kts | 219° |
| 2026-04-24 12:23 | 65.58775 | 78.97969 | 34710 ft | 438 kts | 219° |
| 2026-04-24 12:24 | 65.53925 | 78.89089 | 34716 ft | 437 kts | 219° |
| 2026-04-24 12:24 | 65.49107 | 78.80309 | 34724 ft | 436 kts | 219° |
| 2026-04-24 12:25 | 65.44253 | 78.71506 | 34723 ft | 436 kts | 219° |
| 2026-04-24 12:25 | 65.39389 | 78.62726 | 34724 ft | 437 kts | 219° |
| 2026-04-24 12:26 | 65.34528 | 78.53993 | 34722 ft | 439 kts | 219° |
| 2026-04-24 12:26 | 65.29630 | 78.45234 | 34721 ft | 440 kts | 219° |
| 2026-04-24 12:27 | 65.24739 | 78.36525 | 34720 ft | 441 kts | 219° |
| 2026-04-24 12:27 | 65.19797 | 78.27755 | 34720 ft | 442 kts | 219° |
| 2026-04-24 12:28 | 65.14864 | 78.18956 | 34719 ft | 443 kts | 219° |
| 2026-04-24 12:28 | 65.09956 | 78.10229 | 34714 ft | 443 kts | 219° |
| 2026-04-24 12:29 | 65.05009 | 78.01481 | 34717 ft | 443 kts | 219° |
| 2026-04-24 12:29 | 65.00082 | 77.92810 | 34715 ft | 442 kts | 219° |
| 2026-04-24 12:30 | 64.95123 | 77.84139 | 34718 ft | 442 kts | 217° |
| 2026-04-24 12:30 | 64.89628 | 77.77738 | 34723 ft | 446 kts | 200° |
| 2026-04-24 12:31 | 64.83509 | 77.74869 | 34724 ft | 449 kts | 191° |
| 2026-04-24 12:31 | 64.77322 | 77.72706 | 34727 ft | 449 kts | 191° |
| 2026-04-24 12:32 | 64.71139 | 77.70503 | 34723 ft | 448 kts | 192° |
| 2026-04-24 12:32 | 64.65010 | 77.68260 | 34726 ft | 448 kts | 192° |
| 2026-04-24 12:33 | 64.58838 | 77.65985 | 34724 ft | 448 kts | 192° |
| 2026-04-24 12:33 | 64.52666 | 77.63718 | 34732 ft | 448 kts | 192° |
| 2026-04-24 12:34 | 64.47554 | 77.61609 | 34742 ft | 447 kts | 195° |
| 2026-04-24 12:34 | 64.40444 | 77.58423 | 34739 ft | 449 kts | 190° |
| 2026-04-24 12:35 | 64.35277 | 77.56964 | 34736 ft | 450 kts | 190° |
| 2026-04-24 12:35 | 64.29064 | 77.55074 | 34737 ft | 450 kts | 191° |
| 2026-04-24 12:36 | 64.22871 | 77.52951 | 34738 ft | 450 kts | 191° |
| 2026-04-24 12:36 | 64.16678 | 77.50737 | 34737 ft | 450 kts | 192° |
| 2026-04-24 12:37 | 64.10525 | 77.48535 | 34742 ft | 450 kts | 192° |
| 2026-04-24 12:37 | 64.04336 | 77.46338 | 34743 ft | 450 kts | 192° |
| 2026-04-24 12:38 | 63.98140 | 77.44154 | 34742 ft | 450 kts | 192° |
| 2026-04-24 12:38 | 63.91976 | 77.41991 | 34747 ft | 450 kts | 191° |
| 2026-04-24 12:39 | 63.79613 | 77.37682 | 34748 ft | 450 kts | 191° |
| 2026-04-24 12:40 | 63.73419 | 77.35538 | 34756 ft | 450 kts | 191° |
| 2026-04-24 12:40 | 63.67228 | 77.33403 | 34748 ft | 450 kts | 191° |
| 2026-04-24 12:41 | 63.61028 | 77.31275 | 34757 ft | 450 kts | 191° |
| 2026-04-24 12:41 | 63.54870 | 77.29171 | 34771 ft | 450 kts | 191° |
| 2026-04-24 12:42 | 63.48681 | 77.27064 | 34759 ft | 450 kts | 191° |
| 2026-04-24 12:42 | 63.42481 | 77.24960 | 34759 ft | 450 kts | 191° |
| 2026-04-24 12:43 | 63.36314 | 77.22854 | 34766 ft | 450 kts | 192° |
| 2026-04-24 12:43 | 63.30126 | 77.20742 | 34764 ft | 450 kts | 191° |
| 2026-04-24 12:44 | 63.23926 | 77.18637 | 34772 ft | 450 kts | 191° |
| 2026-04-24 12:44 | 63.17764 | 77.16556 | 34762 ft | 450 kts | 191° |
| 2026-04-24 12:45 | 63.11562 | 77.14470 | 34769 ft | 450 kts | 191° |
| 2026-04-24 12:45 | 63.05364 | 77.12395 | 34767 ft | 450 kts | 191° |
| 2026-04-24 12:46 | 62.99209 | 77.10343 | 34779 ft | 450 kts | 191° |
| 2026-04-24 12:46 | 62.93007 | 77.08284 | 34769 ft | 450 kts | 191° |
| 2026-04-24 12:47 | 62.86840 | 77.06246 | 34771 ft | 450 kts | 191° |
| 2026-04-24 12:47 | 62.80644 | 77.04207 | 34773 ft | 450 kts | 191° |
| 2026-04-24 12:48 | 62.74446 | 77.02175 | 34779 ft | 450 kts | 191° |
| 2026-04-24 12:48 | 62.68285 | 77.00165 | 34776 ft | 450 kts | 191° |
| 2026-04-24 12:49 | 62.62084 | 76.98150 | 34777 ft | 450 kts | 191° |
| 2026-04-24 12:49 | 62.55908 | 76.96151 | 34776 ft | 450 kts | 191° |
| 2026-04-24 12:50 | 62.49698 | 76.94150 | 34779 ft | 450 kts | 191° |
| 2026-04-24 12:50 | 62.43488 | 76.92157 | 34780 ft | 450 kts | 191° |
| 2026-04-24 12:51 | 62.37319 | 76.90186 | 34779 ft | 450 kts | 191° |
| 2026-04-24 12:51 | 62.31109 | 76.88210 | 34781 ft | 450 kts | 191° |
| 2026-04-24 12:52 | 62.24900 | 76.86242 | 34782 ft | 451 kts | 191° |
| 2026-04-24 12:52 | 62.18724 | 76.84293 | 34780 ft | 451 kts | 191° |
| 2026-04-24 12:53 | 62.12491 | 76.82335 | 34781 ft | 451 kts | 191° |
| 2026-04-24 12:53 | 62.06271 | 76.80388 | 34780 ft | 451 kts | 191° |
| 2026-04-24 12:54 | 62.00098 | 76.78464 | 34788 ft | 451 kts | 191° |
| 2026-04-24 12:54 | 61.93873 | 76.76531 | 34790 ft | 451 kts | 191° |
| 2026-04-24 12:55 | 61.87644 | 76.74606 | 34789 ft | 452 kts | 191° |
| 2026-04-24 12:55 | 61.81444 | 76.72697 | 34787 ft | 452 kts | 191° |
| 2026-04-24 12:56 | 61.75200 | 76.70783 | 34792 ft | 452 kts | 191° |
| 2026-04-24 12:56 | 61.69001 | 76.68890 | 34791 ft | 452 kts | 191° |
| 2026-04-24 12:57 | 61.62762 | 76.66992 | 34794 ft | 452 kts | 191° |
| 2026-04-24 12:57 | 61.56571 | 76.65117 | 34793 ft | 452 kts | 191° |
| 2026-04-24 12:58 | 61.50329 | 76.63234 | 34790 ft | 452 kts | 191° |
| 2026-04-24 12:58 | 61.44099 | 76.61362 | 34787 ft | 452 kts | 191° |
| 2026-04-24 12:59 | 61.37911 | 76.59511 | 34789 ft | 451 kts | 191° |
| 2026-04-24 12:59 | 61.31683 | 76.57655 | 34786 ft | 451 kts | 191° |
| 2026-04-24 13:00 | 61.25456 | 76.55806 | 34791 ft | 451 kts | 191° |
| 2026-04-24 13:00 | 61.20280 | 76.54275 | 34793 ft | 451 kts | 191° |
| 2026-04-24 13:01 | 61.13032 | 76.52140 | 34797 ft | 451 kts | 192° |
| 2026-04-24 13:01 | 61.06803 | 76.50312 | 34797 ft | 451 kts | 192° |
| 2026-04-24 13:02 | 61.00575 | 76.48491 | 34801 ft | 451 kts | 192° |
| 2026-04-24 13:02 | 60.94400 | 76.46649 | 34798 ft | 450 kts | 194° |
| 2026-04-24 13:03 | 60.88383 | 76.43270 | 34799 ft | 446 kts | 201° |
| 2026-04-24 13:03 | 60.82474 | 76.39519 | 34796 ft | 446 kts | 200° |
| 2026-04-24 13:04 | 60.76523 | 76.35849 | 34789 ft | 446 kts | 200° |
| 2026-04-24 13:04 | 60.70576 | 76.32264 | 34786 ft | 446 kts | 200° |
| 2026-04-24 13:05 | 60.64615 | 76.28691 | 34775 ft | 446 kts | 200° |
| 2026-04-24 13:05 | 60.60624 | 76.26304 | 34777 ft | 446 kts | 200° |
| 2026-04-24 13:06 | 60.52685 | 76.21551 | 34769 ft | 446 kts | 200° |
| 2026-04-24 13:06 | 60.46765 | 76.18006 | 34772 ft | 446 kts | 200° |
| 2026-04-24 13:07 | 60.40800 | 76.14448 | 34772 ft | 446 kts | 200° |
| 2026-04-24 13:07 | 60.34881 | 76.10932 | 34772 ft | 445 kts | 200° |
| 2026-04-24 13:08 | 60.28928 | 76.07410 | 34776 ft | 445 kts | 200° |
| 2026-04-24 13:08 | 60.22984 | 76.03907 | 34771 ft | 445 kts | 200° |
| 2026-04-24 13:09 | 60.14122 | 75.98706 | 34769 ft | 444 kts | 200° |
| 2026-04-24 13:09 | 60.08184 | 75.95238 | 34776 ft | 443 kts | 200° |
| 2026-04-24 13:10 | 60.02250 | 75.91782 | 34792 ft | 445 kts | 200° |
| 2026-04-24 13:10 | 59.99261 | 75.90043 | 34915 ft | 448 kts | 200° |
| 2026-04-24 13:10 | 59.96276 | 75.88310 | 35178 ft | 446 kts | 200° |
| 2026-04-24 13:11 | 59.93302 | 75.86589 | 35464 ft | 444 kts | 200° |
| 2026-04-24 13:11 | 59.90337 | 75.84875 | 35673 ft | 443 kts | 200° |
| 2026-04-24 13:11 | 59.87375 | 75.83165 | 35776 ft | 445 kts | 200° |
| 2026-04-24 13:11 | 59.84387 | 75.81440 | 35777 ft | 447 kts | 200° |
| 2026-04-24 13:12 | 59.78448 | 75.78027 | 35778 ft | 445 kts | 200° |
| 2026-04-24 13:12 | 59.72502 | 75.74626 | 35785 ft | 443 kts | 200° |
| 2026-04-24 13:13 | 59.66592 | 75.71256 | 35786 ft | 441 kts | 200° |
| 2026-04-24 13:13 | 59.60743 | 75.67931 | 35789 ft | 439 kts | 200° |
| 2026-04-24 13:14 | 59.54865 | 75.64601 | 35792 ft | 438 kts | 201° |
| 2026-04-24 13:14 | 59.48998 | 75.61290 | 35797 ft | 438 kts | 201° |
| 2026-04-24 13:15 | 59.43123 | 75.57986 | 35801 ft | 439 kts | 201° |
| 2026-04-24 13:15 | 59.37269 | 75.54705 | 35801 ft | 439 kts | 201° |
| 2026-04-24 13:16 | 59.31371 | 75.51413 | 35804 ft | 441 kts | 201° |
| 2026-04-24 13:16 | 59.25497 | 75.48146 | 35808 ft | 442 kts | 201° |
| 2026-04-24 13:17 | 59.19558 | 75.44855 | 35809 ft | 443 kts | 201° |
| 2026-04-24 13:17 | 59.13628 | 75.41581 | 35812 ft | 443 kts | 201° |
| 2026-04-24 13:18 | 59.07721 | 75.38332 | 35814 ft | 443 kts | 201° |
| 2026-04-24 13:18 | 59.01765 | 75.35067 | 35816 ft | 443 kts | 201° |
| 2026-04-24 13:19 | 58.95854 | 75.31838 | 35817 ft | 443 kts | 201° |
| 2026-04-24 13:19 | 58.89919 | 75.28608 | 35816 ft | 442 kts | 201° |
| 2026-04-24 13:20 | 58.83996 | 75.25396 | 35825 ft | 441 kts | 201° |
| 2026-04-24 13:20 | 58.78079 | 75.22198 | 35829 ft | 440 kts | 201° |
| 2026-04-24 13:21 | 58.72213 | 75.19040 | 35833 ft | 439 kts | 201° |
| 2026-04-24 13:21 | 58.66320 | 75.15877 | 35832 ft | 438 kts | 201° |
| 2026-04-24 13:22 | 58.60469 | 75.12748 | 35826 ft | 438 kts | 201° |
| 2026-04-24 13:22 | 58.54600 | 75.09620 | 35837 ft | 437 kts | 201° |
| 2026-04-24 13:23 | 58.48732 | 75.06503 | 35839 ft | 436 kts | 201° |
| 2026-04-24 13:23 | 58.42915 | 75.03425 | 35842 ft | 436 kts | 201° |
| 2026-04-24 13:24 | 58.37067 | 75.00340 | 35845 ft | 435 kts | 201° |
| 2026-04-24 13:24 | 58.32199 | 74.97780 | 35846 ft | 436 kts | 201° |
| 2026-04-24 13:25 | 58.26344 | 74.94711 | 35848 ft | 436 kts | 201° |
| 2026-04-24 13:25 | 58.20517 | 74.91667 | 35849 ft | 436 kts | 201° |
| 2026-04-24 13:26 | 58.14651 | 74.88613 | 35853 ft | 436 kts | 201° |
| 2026-04-24 13:26 | 58.08823 | 74.85590 | 35852 ft | 436 kts | 201° |
| 2026-04-24 13:27 | 58.02983 | 74.82571 | 35853 ft | 436 kts | 201° |
| 2026-04-24 13:27 | 57.97122 | 74.79551 | 35855 ft | 436 kts | 201° |
| 2026-04-24 13:28 | 57.91248 | 74.76535 | 35857 ft | 436 kts | 201° |
| 2026-04-24 13:28 | 57.85385 | 74.73534 | 35859 ft | 436 kts | 201° |
| 2026-04-24 13:29 | 57.79560 | 74.70563 | 35862 ft | 436 kts | 201° |
| 2026-04-24 13:29 | 57.73712 | 74.67590 | 35864 ft | 435 kts | 201° |
| 2026-04-24 13:30 | 57.67862 | 74.64626 | 35866 ft | 434 kts | 201° |
| 2026-04-24 13:30 | 57.62056 | 74.61693 | 35867 ft | 434 kts | 202° |
| 2026-04-24 13:31 | 57.56224 | 74.58756 | 35871 ft | 433 kts | 202° |
| 2026-04-24 13:31 | 57.50384 | 74.55825 | 35869 ft | 433 kts | 201° |
| 2026-04-24 13:32 | 57.44570 | 74.52912 | 35868 ft | 432 kts | 202° |
| 2026-04-24 13:32 | 57.38798 | 74.49988 | 35876 ft | 432 kts | 202° |
| 2026-04-24 13:33 | 57.32991 | 74.47044 | 35882 ft | 431 kts | 202° |
| 2026-04-24 13:33 | 57.27202 | 74.44121 | 35881 ft | 431 kts | 202° |
| 2026-04-24 13:34 | 57.21450 | 74.41228 | 35883 ft | 430 kts | 202° |
| 2026-04-24 13:34 | 57.15668 | 74.38331 | 35892 ft | 429 kts | 202° |
| 2026-04-24 13:35 | 57.09889 | 74.35445 | 35887 ft | 429 kts | 202° |
| 2026-04-24 13:35 | 57.04158 | 74.32592 | 35892 ft | 428 kts | 202° |
| 2026-04-24 13:36 | 56.98404 | 74.29737 | 35894 ft | 428 kts | 202° |
| 2026-04-24 13:36 | 56.92644 | 74.26888 | 35895 ft | 427 kts | 202° |
| 2026-04-24 13:37 | 56.86931 | 74.24072 | 35896 ft | 426 kts | 202° |
| 2026-04-24 13:37 | 56.81189 | 74.21249 | 35906 ft | 426 kts | 202° |
| 2026-04-24 13:38 | 56.75489 | 74.18457 | 35901 ft | 425 kts | 202° |
| 2026-04-24 13:38 | 56.72624 | 74.17056 | 35789 ft | 428 kts | 202° |
| 2026-04-24 13:38 | 56.69711 | 74.15629 | 35255 ft | 432 kts | 202° |
| 2026-04-24 13:39 | 56.66815 | 74.14218 | 34641 ft | 431 kts | 202° |
| 2026-04-24 13:39 | 56.63905 | 74.12804 | 34045 ft | 431 kts | 202° |
| 2026-04-24 13:39 | 56.61046 | 74.11417 | 33316 ft | 431 kts | 203° |
| 2026-04-24 13:39 | 56.58149 | 74.10014 | 32605 ft | 431 kts | 203° |
| 2026-04-24 13:40 | 56.55254 | 74.08614 | 31925 ft | 429 kts | 203° |
| 2026-04-24 13:40 | 56.52366 | 74.07219 | 31230 ft | 429 kts | 204° |
| 2026-04-24 13:40 | 56.49481 | 74.05826 | 30512 ft | 429 kts | 204° |
| 2026-04-24 13:40 | 56.46596 | 74.04435 | 29767 ft | 429 kts | 204° |
| 2026-04-24 13:41 | 56.43713 | 74.03047 | 28939 ft | 428 kts | 204° |
| 2026-04-24 13:41 | 56.40884 | 74.01691 | 28431 ft | 421 kts | 204° |
| 2026-04-24 13:41 | 56.38063 | 74.00344 | 27867 ft | 415 kts | 204° |
| 2026-04-24 13:41 | 56.35283 | 73.99016 | 27339 ft | 410 kts | 204° |
| 2026-04-24 13:42 | 56.32549 | 73.97707 | 26822 ft | 404 kts | 204° |
| 2026-04-24 13:42 | 56.29836 | 73.96408 | 26290 ft | 400 kts | 204° |
| 2026-04-24 13:42 | 56.27188 | 73.95141 | 25780 ft | 396 kts | 204° |
| 2026-04-24 13:42 | 56.24535 | 73.93877 | 25267 ft | 392 kts | 204° |
| 2026-04-24 13:43 | 56.21906 | 73.92630 | 24771 ft | 388 kts | 203° |
| 2026-04-24 13:43 | 56.19296 | 73.91426 | 24273 ft | 386 kts | 203° |
| 2026-04-24 13:43 | 56.16699 | 73.90250 | 23780 ft | 383 kts | 203° |
| 2026-04-24 13:43 | 56.14117 | 73.89086 | 23247 ft | 380 kts | 202° |
| 2026-04-24 13:44 | 56.11558 | 73.87934 | 22696 ft | 377 kts | 202° |
| 2026-04-24 13:44 | 56.09059 | 73.86809 | 22213 ft | 372 kts | 202° |
| 2026-04-24 13:44 | 56.06551 | 73.85679 | 21730 ft | 368 kts | 202° |
| 2026-04-24 13:44 | 56.04072 | 73.84561 | 21242 ft | 365 kts | 202° |
| 2026-04-24 13:45 | 56.01642 | 73.83465 | 20770 ft | 362 kts | 202° |
| 2026-04-24 13:45 | 55.99204 | 73.82365 | 20287 ft | 360 kts | 202° |
| 2026-04-24 13:45 | 55.96775 | 73.81270 | 19807 ft | 358 kts | 202° |
| 2026-04-24 13:45 | 55.94364 | 73.80185 | 19346 ft | 356 kts | 202° |
| 2026-04-24 13:46 | 55.91970 | 73.79109 | 18882 ft | 354 kts | 202° |
| 2026-04-24 13:46 | 55.89590 | 73.78041 | 18420 ft | 352 kts | 202° |
| 2026-04-24 13:46 | 55.87216 | 73.76977 | 17915 ft | 351 kts | 202° |
| 2026-04-24 13:46 | 55.84852 | 73.75919 | 17418 ft | 349 kts | 202° |
| 2026-04-24 13:47 | 55.82509 | 73.74874 | 16958 ft | 346 kts | 202° |
| 2026-04-24 13:47 | 55.80207 | 73.73847 | 16489 ft | 344 kts | 202° |
| 2026-04-24 13:47 | 55.77893 | 73.72816 | 16032 ft | 342 kts | 202° |
| 2026-04-24 13:47 | 55.75593 | 73.71792 | 15569 ft | 340 kts | 202° |
| 2026-04-24 13:48 | 55.73298 | 73.70770 | 15113 ft | 338 kts | 202° |
| 2026-04-24 13:48 | 55.71019 | 73.69758 | 14666 ft | 336 kts | 202° |
| 2026-04-24 13:48 | 55.68752 | 73.68752 | 14221 ft | 335 kts | 202° |
| 2026-04-24 13:48 | 55.66515 | 73.67759 | 13776 ft | 334 kts | 202° |
| 2026-04-24 13:49 | 55.64261 | 73.66761 | 13287 ft | 332 kts | 201° |
| 2026-04-24 13:49 | 55.62017 | 73.65770 | 12818 ft | 330 kts | 201° |
| 2026-04-24 13:49 | 55.59792 | 73.64787 | 12363 ft | 328 kts | 202° |
| 2026-04-24 13:49 | 55.57635 | 73.63714 | 11910 ft | 325 kts | 204° |
| 2026-04-24 13:50 | 55.55468 | 73.62549 | 11461 ft | 323 kts | 204° |
| 2026-04-24 13:50 | 55.53323 | 73.61380 | 11020 ft | 321 kts | 204° |
| 2026-04-24 13:50 | 55.51182 | 73.60221 | 10583 ft | 320 kts | 203° |
| 2026-04-24 13:50 | 55.49083 | 73.59094 | 10154 ft | 318 kts | 203° |
| 2026-04-24 13:51 | 55.46966 | 73.57966 | 9712 ft | 317 kts | 203° |
| 2026-04-24 13:51 | 55.44860 | 73.56849 | 9251 ft | 315 kts | 203° |
| 2026-04-24 13:51 | 55.42776 | 73.55747 | 8831 ft | 311 kts | 202° |
| 2026-04-24 13:51 | 55.40707 | 73.54656 | 8400 ft | 308 kts | 202° |
| 2026-04-24 13:52 | 55.38660 | 73.53579 | 7976 ft | 305 kts | 202° |
| 2026-04-24 13:52 | 55.36612 | 73.52568 | 7551 ft | 306 kts | 197° |
| 2026-04-24 13:52 | 55.34455 | 73.52522 | 7163 ft | 315 kts | 177° |
| 2026-04-24 13:52 | 55.32342 | 73.53402 | 6775 ft | 316 kts | 172° |
| 2026-04-24 13:53 | 55.30217 | 73.54424 | 6361 ft | 315 kts | 172° |
| 2026-04-24 13:53 | 55.28112 | 73.55452 | 5960 ft | 312 kts | 172° |
| 2026-04-24 13:53 | 55.26020 | 73.56461 | 5549 ft | 309 kts | 172° |
| 2026-04-24 13:53 | 55.23960 | 73.57442 | 5181 ft | 305 kts | 172° |
| 2026-04-24 13:54 | 55.21918 | 73.58401 | 4826 ft | 302 kts | 171° |
| 2026-04-24 13:54 | 55.19900 | 73.59345 | 4604 ft | 294 kts | 172° |
| 2026-04-24 13:54 | 55.17975 | 73.60242 | 4462 ft | 285 kts | 172° |
| 2026-04-24 13:54 | 55.16074 | 73.61123 | 4351 ft | 282 kts | 171° |
| 2026-04-24 13:55 | 55.14178 | 73.61998 | 4233 ft | 280 kts | 171° |
| 2026-04-24 13:55 | 55.12324 | 73.62856 | 4100 ft | 271 kts | 171° |
| 2026-04-24 13:55 | 55.10523 | 73.63638 | 3979 ft | 260 kts | 178° |
| 2026-04-24 13:55 | 55.08799 | 73.63411 | 3874 ft | 242 kts | 199° |
| 2026-04-24 13:56 | 55.07228 | 73.62612 | 3812 ft | 227 kts | 203° |
| 2026-04-24 13:56 | 55.05772 | 73.61799 | 3718 ft | 212 kts | 203° |
| 2026-04-24 13:56 | 55.04415 | 73.61048 | 3612 ft | 197 kts | 203° |
| 2026-04-24 13:56 | 55.03170 | 73.60367 | 3497 ft | 184 kts | 202° |
| 2026-04-24 13:57 | 55.01984 | 73.59724 | 3381 ft | 172 kts | 202° |
| 2026-04-24 13:57 | 55.01016 | 73.58759 | 3263 ft | 153 kts | 239° |
| 2026-04-24 13:57 | 55.00618 | 73.57095 | 3137 ft | 147 kts | 247° |
| 2026-04-24 13:57 | 55.00234 | 73.55538 | 2982 ft | 140 kts | 250° |
| 2026-04-24 13:58 | 54.99900 | 73.53945 | 2790 ft | 140 kts | 251° |
| 2026-04-24 13:58 | 54.99609 | 73.52311 | 2586 ft | 141 kts | 254° |
| 2026-04-24 13:58 | 54.99361 | 73.50655 | 2393 ft | 141 kts | 256° |
| 2026-04-24 13:58 | 54.99128 | 73.48983 | 2205 ft | 142 kts | 257° |
| 2026-04-24 13:59 | 54.98901 | 73.47310 | 2016 ft | 142 kts | 257° |
| 2026-04-24 13:59 | 54.98676 | 73.45649 | 1814 ft | 141 kts | 257° |
| 2026-04-24 13:59 | 54.98454 | 73.43995 | 1629 ft | 142 kts | 257° |
| 2026-04-24 13:59 | 54.98227 | 73.42311 | 1433 ft | 142 kts | 257° |
| 2026-04-24 14:00 | 54.98002 | 73.40643 | 1230 ft | 142 kts | 258° |
| 2026-04-24 14:00 | 54.97776 | 73.38951 | 1048 ft | 146 kts | 257° |
| 2026-04-24 14:00 | 54.97539 | 73.37190 | 828 ft | 150 kts | 257° |
| 2026-04-24 14:00 | 54.97304 | 73.35436 | 619 ft | 150 kts | 257° |
| 2026-04-24 14:01 | 54.97076 | 73.33708 | 432 ft | 144 kts | 257° |
| 2026-04-24 14:01 | 54.96844 | 73.32014 | 313 ft | 138 kts | 257° |
| 2026-04-24 14:01 | 54.96664 | 73.30653 | 312 ft | 86 kts | 256° |
| 2026-04-24 14:01 | 54.96571 | 73.29965 | 315 ft | 41 kts | 256° |
| 2026-04-24 14:02 | 54.96522 | 73.29589 | 319 ft | 25 kts | 256° |
| 2026-04-24 14:02 | 54.96481 | 73.29308 | 320 ft | 20 kts | 256° |
| 2026-04-24 14:02 | 54.96451 | 73.29169 | 320 ft | 9 kts | 218° |
| 2026-04-24 14:02 | 54.96391 | 73.29163 | 317 ft | 9 kts | 168° |
| 2026-04-24 14:03 | 54.96328 | 73.29189 | 316 ft | 10 kts | 166° |
| 2026-04-24 14:03 | 54.96270 | 73.29214 | 315 ft | 8 kts | 166° |
| 2026-04-24 14:03 | 54.96215 | 73.29237 | 315 ft | 9 kts | 166° |
| 2026-04-24 14:03 | 54.96161 | 73.29259 | 314 ft | 6 kts | 168° |
| 2026-04-24 14:04 | 54.96127 | 73.29271 | 314 ft | 4 kts | 167° |
| 2026-04-24 14:04 | 54.96109 | 73.29280 | 312 ft | 2 kts | 161° |
| 2026-04-24 14:04 | 54.96092 | 73.29298 | 314 ft | 6 kts | 139° |
| 2026-04-24 14:04 | 54.96084 | 73.29391 | 313 ft | 9 kts | 78° |
| 2026-04-24 14:05 | 54.96099 | 73.29507 | 311 ft | 10 kts | 77° |
| 2026-04-24 14:05 | 54.96119 | 73.29655 | 308 ft | 15 kts | 77° |
| 2026-04-24 14:05 | 54.96144 | 73.29847 | 308 ft | 16 kts | 77° |
| 2026-04-24 14:05 | 54.96170 | 73.30036 | 305 ft | 16 kts | 78° |
| 2026-04-24 14:06 | 54.96194 | 73.30218 | 305 ft | 15 kts | 77° |
| 2026-04-24 14:06 | 54.96217 | 73.30392 | 306 ft | 14 kts | 77° |
| 2026-04-24 14:06 | 54.96232 | 73.30504 | 305 ft | 14 kts | 76° |
| 2026-04-24 14:06 | 54.96261 | 73.30720 | 304 ft | 13 kts | 78° |
| 2026-04-24 14:07 | 54.96281 | 73.30870 | 301 ft | 13 kts | 76° |